Etusivu
METAR-TAF:

METAR-TAF

Lentoasemat :

Kenosha, Wisconsin, Yhdysvallat

Leveyspiiri: 42-35-42N, Pituuspiiri: 087-56-17W, korkeus merenpinnasta: 226 m

Tämänhetkinen sää

Tämä raportti tehtiin 35 minuuttia sitten, kello 14.53 UTC
Tuuli 7 kn lännestä
Lämpötila 6°C
Kosteus 75%
Ilmanpaine 1019 hPa
Näkyvyys: 16.1 km
selkeää

METAR: KENW 141453Z 28007KT 10SM CLR 06/02 A3008

Aika: 10:28 (15:28 UTC)

Sääennuste

Tämä raportti tehtiin 4 tuntia ja 8 minuuttia sitten, kello 11.20 UTC
Ennuste voimassa 14. päivästä klo 12 UTC - 15. päivään klo 12 UTC
Tuuli 6 kn lännestä
Näkyvyys: 10 km
Muutamia pilviä 25000 ft:n korkeudessa
From 14. päivästä klo 2300 UTC
Tuuli 4 kn eri suunnista
Näkyvyys: 10 km
Muutamia pilviä 25000 ft:n korkeudessa
From 15. päivästä klo 0900 UTC
Tuuli 6 kn etelästä
Näkyvyys: 10 km
Muutamia pilviä 25000 ft:n korkeudessa

TAF: KENW 141120Z 1412/1512 26006KT P6SM FEW250 FM142300 VRB04KT P6SM FEW250 FM150900 17006KT P6SM FEW250

Säähavainnot ja -ennusteet yli 4000 lentoasemalta (METAR- ja TAF-raportit).

Käytössä olevat sääasemat on merkitty karttaan keltaisilla ja punaisilla pisteillä.

Aseta hiiri pisteen päälle nähdäksesi sääaseman nimen.

Klikkaa sitten nähdäksesi säähavainnot ja -ennusteet.

Kartan vaihtaminen: klikkaa mustalla rastilla varustettuja vihreitä pisteitä, niin voit zoomata sisään; viivalla varustettua vihreää pistettä, niin voit zoomata ulos tai vihreitä nuolia, niin pääset viereisille kartoille.


METAR-TAF: